Wiergate, Texas
Current Conditions -  °F | °C
As of 2:55 PM on Thursday 18 Dec 2014 (Local Time) from KJAS Reporting Station
Overcast Overcast  
Wind Chill: 60°   Ceiling: 1100
Heat Index: 60°   Visibility: 10mi
Dew Point: 54°   Wind: 6mph
Humidity: 81%   Direction: 340°NNW
Pressure: 30.09"   Gusts: NA
Location:  31°N, 93.71°W
Report Text: KJAS 182055Z AUTO 34005KT 10SM OVC011 15/12 A3009 RMK AO2 T01530121
Loading
Personal Weather Stations






























Interactive Weather Map New forecast layout! Learn more

10-Day Weather Forecast

Advertisements
Track Severe Weather on mobile